Terminal Aerodrome Forecast
Issued by NWS

Current Version | Previous Version | Text Only | Print | Product List | Glossary On
Versions: 1 2 3 4 5 6 7 8 9 10 11 12 13 14 15 16 17 18 19
000
FTUS41 KBOX 292320
TAFBAF
TAF
KBAF 292320Z 3000/3024 03008KT P6SM BKN250
     FM300200 17006KT P6SM BKN050
     FM300400 17005KT P6SM BKN015
     FM300600 17005KT 5SM -SHRA BR OVC030
     FM300900 15004KT 3SM -SHRA BR OVC008
     FM301200 20004KT 3SM SHRA BR OVC008
     FM301700 22006KT P6SM -SHRA OVC040
     FM302200 22005KT P6SM BKN050=

USA.gov is the U.S. government's official web portal to all federal, state and local government web resources and services.